Time,TemperatureF,DewpointF,PressureIn,WindDirection,WindDirectionDegrees,WindSpeedMPH,WindSpeedGustMPH,Humidity,HourlyPrecipIn,Conditions,Clouds,dailyrainin,SoftwareType,DateUTC
2013-03-21 00:01:00,23.9,10.9,30.12,NNW,338,10.6,12.5,57,0.00,,CLR,0.00,VWS V14.01,2013-03-21 05:01:00,
2013-03-21 00:06:00,23.7,10.7,30.12,NNW,338,10.6,14.9,57,0.00,,CLR,0.00,VWS V14.01,2013-03-21 05:06:00,
2013-03-21 00:11:00,23.7,10.3,30.12,NW,315,12.3,16.4,56,0.00,,CLR,0.00,VWS V14.01,2013-03-21 05:11:00,
2013-03-21 00:16:00,23.5,10.6,30.12,NNW,338,11.1,12.5,57,0.00,,CLR,0.00,VWS V14.01,2013-03-21 05:16:00,
2013-03-21 00:21:00,23.4,10.4,30.09,NNW,338,10.2,12.0,57,0.00,,CLR,0.00,VWS V14.01,2013-03-21 05:21:00,
2013-03-21 00:26:00,23.4,10.8,30.09,NNW,338,10.6,12.5,58,0.00,,CLR,0.00,VWS V14.01,2013-03-21 05:26:00,
2013-03-21 00:32:00,23.2,10.6,30.09,NNW,338,7.2,10.6,58,0.00,,CLR,0.00,VWS V14.01,2013-03-21 05:32:00,
2013-03-21 00:36:00,23.2,11.0,30.12,NNW,338,10.2,11.5,59,0.00,,CLR,0.00,VWS V14.01,2013-03-21 05:36:00,
2013-03-21 00:41:00,23.0,10.4,30.12,NW,315,5.5,7.7,58,0.00,,CLR,0.00,VWS V14.01,2013-03-21 05:41:00,
2013-03-21 00:47:00,23.0,10.8,30.12,NNW,338,6.0,7.7,59,0.00,,CLR,0.00,VWS V14.01,2013-03-21 05:47:00,
2013-03-21 00:52:00,23.0,11.2,30.09,NNE,22,5.1,8.2,60,0.00,,CLR,0.00,VWS V14.01,2013-03-21 05:52:00,
2013-03-21 00:57:00,22.8,11.0,30.09,NNW,338,4.7,7.7,60,0.00,,CLR,0.00,VWS V14.01,2013-03-21 05:57:00,
2013-03-21 01:02:00,22.8,10.3,30.09,NW,315,6.8,12.0,58,0.00,,CLR,0.00,VWS V14.01,2013-03-21 06:02:00,
2013-03-21 01:07:00,22.8,10.6,30.12,North,0,7.2,9.1,59,0.00,,CLR,0.00,VWS V14.01,2013-03-21 06:07:00,
2013-03-21 01:12:00,22.8,10.6,30.12,NNW,338,5.1,7.2,59,0.00,,CLR,0.00,VWS V14.01,2013-03-21 06:12:00,
2013-03-21 01:17:00,22.8,10.6,30.12,NNW,338,7.7,11.5,59,0.00,,CLR,0.00,VWS V14.01,2013-03-21 06:17:00,
2013-03-21 01:22:00,22.6,10.9,30.09,NNW,338,10.2,11.5,60,0.00,,CLR,0.00,VWS V14.01,2013-03-21 06:22:00,
2013-03-21 01:27:00,22.6,10.5,30.09,NW,315,6.8,10.6,59,0.00,,CLR,0.00,VWS V14.01,2013-03-21 06:27:00,
2013-03-21 01:32:00,22.6,10.5,30.09,NW,315,8.1,11.5,59,0.00,,CLR,0.00,VWS V14.01,2013-03-21 06:32:00,
2013-03-21 01:37:00,22.5,10.7,30.09,NNW,338,9.4,11.5,60,0.00,,CLR,0.00,VWS V14.01,2013-03-21 06:37:00,
2013-03-21 01:42:00,22.5,10.7,30.09,NW,315,9.4,13.0,60,0.00,,CLR,0.00,VWS V14.01,2013-03-21 06:42:00,
2013-03-21 01:47:00,22.5,10.3,30.09,NNW,338,9.4,10.6,59,0.00,,CLR,0.00,VWS V14.01,2013-03-21 06:47:00,
2013-03-21 01:52:00,22.5,10.3,30.12,North,0,7.2,10.6,59,0.00,,CLR,0.00,VWS V14.01,2013-03-21 06:52:00,
2013-03-21 01:57:00,22.5,10.7,30.12,NNW,338,8.9,12.0,60,0.00,,CLR,0.00,VWS V14.01,2013-03-21 06:57:00,
2013-03-21 02:02:00,22.3,10.5,30.12,NNW,338,12.3,19.2,60,0.00,,CLR,0.00,VWS V14.01,2013-03-21 07:02:00,
2013-03-21 02:07:00,22.3,10.5,30.12,NNW,338,10.6,13.0,60,0.00,,CLR,0.00,VWS V14.01,2013-03-21 07:07:00,
2013-03-21 02:12:00,22.3,10.5,30.12,NW,315,8.1,11.5,60,0.00,,CLR,0.00,VWS V14.01,2013-03-21 07:12:00,
2013-03-21 02:17:00,22.3,10.1,30.12,NW,315,12.3,14.0,59,0.00,,CLR,0.00,VWS V14.01,2013-03-21 07:17:00,
2013-03-21 02:22:00,22.1,11.1,30.09,NNW,338,14.9,16.8,62,0.00,,CLR,0.00,VWS V14.01,2013-03-21 07:22:00,
2013-03-21 02:27:00,21.9,11.3,30.09,NNW,338,10.2,13.5,63,0.00,,CLR,0.00,VWS V14.01,2013-03-21 07:27:00,
2013-03-21 02:32:00,21.7,11.1,30.09,NNW,338,11.9,13.5,63,0.00,,CLR,0.00,VWS V14.01,2013-03-21 07:32:00,
2013-03-21 02:37:00,21.7,11.1,30.09,NNW,338,9.4,13.0,63,0.00,,CLR,0.00,VWS V14.01,2013-03-21 07:37:00,
2013-03-21 02:42:00,21.5,10.9,30.09,NNW,338,11.9,14.0,63,0.00,,CLR,0.00,VWS V14.01,2013-03-21 07:42:00,
2013-03-21 02:47:00,21.5,10.9,30.09,NNW,338,7.7,15.4,63,0.00,,CLR,0.00,VWS V14.01,2013-03-21 07:47:00,
2013-03-21 02:52:00,21.5,10.9,30.09,NW,315,9.4,13.0,63,0.00,,CLR,0.00,VWS V14.01,2013-03-21 07:52:00,
2013-03-21 02:57:00,21.5,10.6,30.09,NNW,338,6.8,12.0,62,0.00,,CLR,0.00,VWS V14.01,2013-03-21 07:57:00,
2013-03-21 03:02:00,21.5,10.9,30.09,NNW,338,7.2,10.1,63,0.00,,CLR,0.00,VWS V14.01,2013-03-21 08:02:00,
2013-03-21 03:07:00,21.4,10.8,30.09,NW,315,8.9,11.5,63,0.00,,CLR,0.00,VWS V14.01,2013-03-21 08:07:00,
2013-03-21 03:12:00,21.2,10.2,30.09,NNW,338,5.1,8.7,62,0.00,,CLR,0.00,VWS V14.01,2013-03-21 08:12:00,
2013-03-21 03:18:00,21.2,10.2,30.09,North,0,7.2,11.5,62,0.00,,CLR,0.00,VWS V14.01,2013-03-21 08:18:00,
2013-03-21 03:23:00,21.2,10.2,30.09,NNW,338,7.2,11.5,62,0.00,,CLR,0.00,VWS V14.01,2013-03-21 08:23:00,
2013-03-21 03:28:00,21.2,9.5,30.09,NNE,22,6.8,13.0,60,0.00,,CLR,0.00,VWS V14.01,2013-03-21 08:28:00,
2013-03-21 03:33:00,21.0,9.7,30.09,NNW,338,5.1,12.5,61,0.00,,CLR,0.00,VWS V14.01,2013-03-21 08:33:00,
2013-03-21 03:38:00,21.0,9.3,30.09,NNW,338,5.1,8.7,60,0.00,,CLR,0.00,VWS V14.01,2013-03-21 08:38:00,
2013-03-21 03:43:00,21.0,10.1,30.09,North,0,7.7,10.1,62,0.00,,CLR,0.00,VWS V14.01,2013-03-21 08:43:00,
2013-03-21 03:48:00,20.8,9.5,30.09,NNE,22,6.8,8.2,61,0.00,,CLR,0.00,VWS V14.01,2013-03-21 08:48:00,
2013-03-21 03:53:00,20.8,9.5,30.06,NW,315,8.9,10.1,61,0.00,,CLR,0.00,VWS V14.01,2013-03-21 08:53:00,
2013-03-21 03:58:00,20.8,9.5,30.06,NNW,338,6.4,11.5,61,0.00,,CLR,0.00,VWS V14.01,2013-03-21 08:58:00,
2013-03-21 04:03:00,20.6,9.7,30.06,North,0,7.2,9.1,62,0.00,,CLR,0.00,VWS V14.01,2013-03-21 09:03:00,
2013-03-21 04:08:00,20.5,10.2,30.12,NE,45,3.8,12.5,64,0.00,,CLR,0.00,VWS V14.01,2013-03-21 09:08:00,
2013-03-21 04:13:00,20.5,9.9,30.12,North,0,5.5,8.7,63,0.00,,CLR,0.00,VWS V14.01,2013-03-21 09:13:00,
2013-03-21 04:18:00,20.3,9.7,30.12,North,0,6.4,10.1,63,0.00,,CLR,0.00,VWS V14.01,2013-03-21 09:18:00,
2013-03-21 04:23:00,20.1,9.2,30.09,NE,45,9.4,10.6,62,0.00,,CLR,0.00,VWS V14.01,2013-03-21 09:23:00,
2013-03-21 04:28:00,19.9,8.7,30.09,NNW,338,9.4,12.5,61,0.00,,CLR,0.00,VWS V14.01,2013-03-21 09:28:00,
2013-03-21 04:33:00,19.9,8.7,30.09,NNW,338,5.1,8.2,61,0.00,,CLR,0.00,VWS V14.01,2013-03-21 09:33:00,
2013-03-21 04:38:00,19.8,8.5,30.09,NNW,338,4.7,7.7,61,0.00,,CLR,0.00,VWS V14.01,2013-03-21 09:38:00,
2013-03-21 04:43:00,19.6,8.7,30.09,NNW,338,5.5,6.3,62,0.00,,CLR,0.00,VWS V14.01,2013-03-21 09:43:00,
2013-03-21 04:48:00,19.6,8.7,30.09,NW,315,5.5,7.2,62,0.00,,CLR,0.00,VWS V14.01,2013-03-21 09:48:00,
2013-03-21 04:53:00,19.4,8.9,30.09,NNW,338,3.8,4.3,63,0.00,,CLR,0.00,VWS V14.01,2013-03-21 09:53:00,
2013-03-21 04:58:00,19.4,8.9,30.09,NNW,338,5.1,5.8,63,0.00,,CLR,0.00,VWS V14.01,2013-03-21 09:58:00,
2013-03-21 05:03:00,19.2,8.7,30.09,North,0,5.1,6.3,63,0.00,,CLR,0.00,VWS V14.01,2013-03-21 10:03:00,
2013-03-21 05:08:00,19.0,8.2,30.09,North,0,4.3,6.7,62,0.00,,CLR,0.00,VWS V14.01,2013-03-21 10:08:00,
2013-03-21 05:13:00,19.0,8.2,30.09,NNE,22,3.8,5.8,62,0.00,,CLR,0.00,VWS V14.01,2013-03-21 10:13:00,
2013-03-21 05:18:00,19.0,8.2,30.09,NNE,22,4.3,6.7,62,0.00,,CLR,0.00,VWS V14.01,2013-03-21 10:18:00,
2013-03-21 05:23:00,18.9,8.0,30.09,NNE,22,7.2,8.2,62,0.00,,CLR,0.00,VWS V14.01,2013-03-21 10:23:00,
2013-03-21 05:28:00,18.7,8.2,30.09,NNW,338,4.3,4.8,63,0.00,,CLR,0.00,VWS V14.01,2013-03-21 10:28:00,
2013-03-21 05:33:00,18.7,8.2,30.09,NW,315,6.0,6.7,63,0.00,,CLR,0.00,VWS V14.01,2013-03-21 10:33:00,
2013-03-21 05:38:00,18.7,8.2,30.09,NNW,338,4.7,5.8,63,0.00,,CLR,0.00,VWS V14.01,2013-03-21 10:38:00,
2013-03-21 05:44:00,18.7,8.5,30.09,NNW,338,3.0,5.8,64,0.00,,CLR,0.00,VWS V14.01,2013-03-21 10:44:00,
2013-03-21 05:49:00,18.5,8.4,30.09,North,0,4.7,8.2,64,0.00,,CLR,0.00,VWS V14.01,2013-03-21 10:49:00,
2013-03-21 05:54:00,18.5,8.0,30.09,NW,315,5.1,5.8,63,0.00,,CLR,0.00,VWS V14.01,2013-03-21 10:54:00,
2013-03-21 05:59:00,18.3,7.8,30.09,NNW,338,4.7,5.3,63,0.00,,CLR,0.00,VWS V14.01,2013-03-21 10:59:00,
2013-03-21 06:04:00,18.3,8.2,30.09,NNW,338,4.3,4.8,64,0.00,,SCT027,0.00,VWS V14.01,2013-03-21 11:04:00,
2013-03-21 06:09:00,18.1,8.0,30.09,NNE,22,3.0,8.2,64,0.00,,SCT027,0.00,VWS V14.01,2013-03-21 11:09:00,
2013-03-21 06:14:00,18.1,8.0,30.09,North,0,4.7,5.8,64,0.00,,SCT027,0.00,VWS V14.01,2013-03-21 11:14:00,
2013-03-21 06:19:00,18.0,7.8,30.09,North,0,0.0,0.0,64,0.00,,SCT027,0.00,VWS V14.01,2013-03-21 11:19:00,
2013-03-21 06:24:00,18.1,8.0,30.09,NNE,22,2.1,3.4,64,0.00,,SCT027,0.00,VWS V14.01,2013-03-21 11:24:00,
2013-03-21 06:29:00,18.1,8.0,30.09,NNW,338,4.3,5.8,64,0.00,,SCT027,0.00,VWS V14.01,2013-03-21 11:29:00,
2013-03-21 06:34:00,18.0,7.8,30.09,NW,315,4.7,5.3,64,0.00,,SCT027,0.00,VWS V14.01,2013-03-21 11:34:00,
2013-03-21 06:39:00,18.0,7.8,30.09,NNW,338,3.0,5.8,64,0.00,,SCT027,0.00,VWS V14.01,2013-03-21 11:39:00,
2013-03-21 06:44:00,18.0,7.8,30.09,North,0,3.8,5.3,64,0.00,,SCT027,0.00,VWS V14.01,2013-03-21 11:44:00,
2013-03-21 06:49:00,17.8,7.7,30.06,North,0,3.0,6.3,64,0.00,,SCT027,0.00,VWS V14.01,2013-03-21 11:49:00,
2013-03-21 06:54:00,17.8,7.7,30.06,North,0,2.6,4.8,64,0.00,,SCT027,0.00,VWS V14.01,2013-03-21 11:54:00,
2013-03-21 06:59:00,17.8,7.7,30.06,North,0,4.7,5.3,64,0.00,,SCT027,0.00,VWS V14.01,2013-03-21 11:59:00,
2013-03-21 07:04:00,17.4,7.7,30.06,NNW,338,4.7,5.3,65,0.00,,CLR,0.00,VWS V14.01,2013-03-21 12:04:00,
2013-03-21 07:09:00,17.6,7.8,30.06,North,0,4.7,5.3,65,0.00,,CLR,0.00,VWS V14.01,2013-03-21 12:09:00,
2013-03-21 07:14:00,17.6,7.8,30.06,NE,45,4.3,7.7,65,0.00,,CLR,0.00,VWS V14.01,2013-03-21 12:14:00,
2013-03-21 07:19:00,17.6,7.8,30.06,NNW,338,4.7,5.3,65,0.00,,CLR,0.00,VWS V14.01,2013-03-21 12:19:00,
2013-03-21 07:24:00,17.6,7.8,30.06,NNE,22,2.6,2.9,65,0.00,,CLR,0.00,VWS V14.01,2013-03-21 12:24:00,
2013-03-21 07:29:00,17.8,8.0,30.06,NNW,338,5.1,5.8,65,0.00,,CLR,0.00,VWS V14.01,2013-03-21 12:29:00,
2013-03-21 07:34:00,17.6,7.8,30.03,NW,315,4.7,5.3,65,0.00,,CLR,0.00,VWS V14.01,2013-03-21 12:34:00,
2013-03-21 07:39:00,17.8,8.4,30.03,NNE,22,2.1,2.4,66,0.00,,CLR,0.00,VWS V14.01,2013-03-21 12:39:00,
2013-03-21 07:44:00,18.0,8.5,30.03,NNE,22,0.0,0.0,66,0.00,,CLR,0.00,VWS V14.01,2013-03-21 12:44:00,
2013-03-21 07:49:00,18.1,9.0,30.06,NW,315,2.6,4.3,67,0.00,,CLR,0.00,VWS V14.01,2013-03-21 12:49:00,
2013-03-21 07:54:00,18.3,8.9,30.06,NW,315,1.7,2.9,66,0.00,,CLR,0.00,VWS V14.01,2013-03-21 12:54:00,
2013-03-21 08:00:00,18.5,9.0,30.06,NW,315,1.7,4.3,66,0.00,,CLR,0.00,VWS V14.01,2013-03-21 13:00:00,
2013-03-21 08:05:00,18.7,9.2,30.06,NNW,338,3.8,5.8,66,0.00,,CLR,0.00,VWS V14.01,2013-03-21 13:05:00,
2013-03-21 08:10:00,19.0,9.6,30.06,NNW,338,5.1,6.7,66,0.00,,CLR,0.00,VWS V14.01,2013-03-21 13:10:00,
2013-03-21 08:15:00,19.0,9.2,30.06,NE,45,3.0,5.3,65,0.00,,CLR,0.00,VWS V14.01,2013-03-21 13:15:00,
2013-03-21 08:20:00,19.2,9.0,30.09,NNE,22,2.1,4.8,64,0.00,,CLR,0.00,VWS V14.01,2013-03-21 13:20:00,
2013-03-21 08:25:00,19.4,9.6,30.09,NNW,338,0.0,4.3,65,0.00,,CLR,0.00,VWS V14.01,2013-03-21 13:25:00,
2013-03-21 08:30:00,19.6,9.4,30.09,North,0,0.0,6.3,64,0.00,,CLR,0.00,VWS V14.01,2013-03-21 13:30:00,
2013-03-21 08:35:00,19.6,9.0,30.09,NE,45,4.7,5.3,63,0.00,,CLR,0.00,VWS V14.01,2013-03-21 13:35:00,
2013-03-21 08:40:00,19.9,9.4,30.09,North,0,6.4,7.2,63,0.00,,CLR,0.00,VWS V14.01,2013-03-21 13:40:00,
2013-03-21 08:45:00,19.9,9.4,30.09,NNW,338,5.1,6.3,63,0.00,,CLR,0.00,VWS V14.01,2013-03-21 13:45:00,
2013-03-21 08:50:00,20.3,9.7,30.09,ENE,68,4.3,5.3,63,0.00,,CLR,0.00,VWS V14.01,2013-03-21 13:50:00,
2013-03-21 08:55:00,20.5,9.5,30.09,NNE,22,0.0,3.4,62,0.00,,CLR,0.00,VWS V14.01,2013-03-21 13:55:00,
2013-03-21 09:00:00,20.6,9.7,30.09,ESE,112,0.0,6.3,62,0.00,,CLR,0.00,VWS V14.01,2013-03-21 14:00:00,
2013-03-21 09:05:00,21.0,9.7,30.09,NNW,338,5.1,8.2,61,0.00,,CLR,0.00,VWS V14.01,2013-03-21 14:05:00,
2013-03-21 09:10:00,21.2,9.9,30.09,North,0,3.8,6.7,61,0.00,,CLR,0.00,VWS V14.01,2013-03-21 14:10:00,
2013-03-21 09:15:00,21.4,9.7,30.09,NNW,338,3.0,7.2,60,0.00,,CLR,0.00,VWS V14.01,2013-03-21 14:15:00,
2013-03-21 09:20:00,21.4,8.5,30.09,NE,45,4.3,4.8,57,0.00,,CLR,0.00,VWS V14.01,2013-03-21 14:20:00,
2013-03-21 09:25:00,21.5,9.4,30.09,WNW,292,2.1,2.4,59,0.00,,CLR,0.00,VWS V14.01,2013-03-21 14:25:00,
2013-03-21 09:30:00,22.1,9.2,30.09,NNE,22,4.7,5.3,57,0.00,,CLR,0.00,VWS V14.01,2013-03-21 14:30:00,
2013-03-21 09:35:00,22.5,8.7,30.09,NW,315,4.7,5.3,55,0.00,,CLR,0.00,VWS V14.01,2013-03-21 14:35:00,
2013-03-21 09:40:00,22.6,9.7,30.09,West,270,3.8,5.8,57,0.00,,CLR,0.00,VWS V14.01,2013-03-21 14:40:00,
2013-03-21 09:45:00,23.0,10.0,30.09,NW,315,0.0,3.4,57,0.00,,CLR,0.00,VWS V14.01,2013-03-21 14:45:00,
2013-03-21 09:50:00,23.2,9.4,30.06,NW,315,3.0,6.7,55,0.00,,CLR,0.00,VWS V14.01,2013-03-21 14:50:00,
2013-03-21 09:55:00,23.5,9.3,30.06,WNW,292,4.7,7.2,54,0.00,,CLR,0.00,VWS V14.01,2013-03-21 14:55:00,
2013-03-21 10:00:00,23.5,8.9,30.06,North,0,3.0,5.8,53,0.00,,CLR,0.00,VWS V14.01,2013-03-21 15:00:00,
2013-03-21 10:05:00,23.9,9.3,30.06,NNW,338,5.1,5.8,53,0.00,,CLR,0.00,VWS V14.01,2013-03-21 15:05:00,
2013-03-21 10:10:00,24.2,10.0,30.06,NW,315,6.4,8.2,54,0.00,,CLR,0.00,VWS V14.01,2013-03-21 15:10:00,
2013-03-21 10:15:00,24.4,9.8,30.06,West,270,2.6,7.2,53,0.00,,CLR,0.00,VWS V14.01,2013-03-21 15:15:00,
2013-03-21 10:20:00,24.8,9.7,30.03,NNW,338,2.1,7.2,52,0.00,,CLR,0.00,VWS V14.01,2013-03-21 15:20:00,
2013-03-21 10:25:00,25.0,9.8,30.03,WSW,248,6.0,7.2,52,0.00,,CLR,0.00,VWS V14.01,2013-03-21 15:25:00,
2013-03-21 10:30:00,25.1,10.0,30.03,WNW,292,3.8,7.2,52,0.00,,CLR,0.00,VWS V14.01,2013-03-21 15:30:00,
2013-03-21 10:35:00,25.1,10.0,30.03,NNE,22,5.5,6.3,52,0.00,,CLR,0.00,VWS V14.01,2013-03-21 15:35:00,
2013-03-21 10:40:00,24.8,9.2,30.03,NE,45,5.5,7.7,51,0.00,,CLR,0.00,VWS V14.01,2013-03-21 15:40:00,
2013-03-21 10:45:00,25.7,10.5,30.03,NW,315,7.7,10.6,52,0.00,,CLR,0.00,VWS V14.01,2013-03-21 15:45:00,
2013-03-21 10:50:00,25.9,10.7,30.03,WSW,248,2.6,7.7,52,0.00,,CLR,0.00,VWS V14.01,2013-03-21 15:50:00,
2013-03-21 10:56:00,25.9,9.8,30.03,NNE,22,2.1,5.3,50,0.00,,CLR,0.00,VWS V14.01,2013-03-21 15:56:00,
2013-03-21 11:01:00,26.6,10.9,30.03,NNW,338,7.2,9.1,51,0.00,,FEW028,0.00,VWS V14.01,2013-03-21 16:01:00,
2013-03-21 11:06:00,26.8,10.2,30.03,WNW,292,8.9,10.1,49,0.00,,FEW028,0.00,VWS V14.01,2013-03-21 16:06:00,
2013-03-21 11:11:00,27.0,10.4,30.03,SSW,202,0.0,4.3,49,0.00,,FEW028,0.00,VWS V14.01,2013-03-21 16:11:00,
2013-03-21 11:16:00,27.0,9.9,30.03,NNW,338,6.0,7.7,48,0.00,,FEW028,0.00,VWS V14.01,2013-03-21 16:16:00,
2013-03-21 11:21:00,27.3,9.8,30.03,NNW,338,0.0,7.7,47,0.00,,FEW028,0.00,VWS V14.01,2013-03-21 16:21:00,
2013-03-21 11:26:00,27.5,9.9,30.03,West,270,6.4,7.2,47,0.00,,FEW028,0.00,VWS V14.01,2013-03-21 16:26:00,
2013-03-21 11:31:00,28.0,10.9,30.03,SSW,202,2.1,5.8,48,0.00,,FEW028,0.00,VWS V14.01,2013-03-21 16:31:00,
2013-03-21 11:36:00,28.0,9.4,30.03,SE,135,0.0,7.7,45,0.00,,FEW028,0.00,VWS V14.01,2013-03-21 16:36:00,
2013-03-21 11:42:00,29.1,11.4,30.03,SSW,202,4.3,8.7,47,0.00,,FEW028,0.00,VWS V14.01,2013-03-21 16:42:00,
2013-03-21 11:47:00,29.1,10.4,30.03,NNW,338,4.7,9.1,45,0.00,,FEW028,0.00,VWS V14.01,2013-03-21 16:47:00,
2013-03-21 11:52:00,29.3,10.6,30.03,WNW,292,6.8,7.7,45,0.00,,FEW028,0.00,VWS V14.01,2013-03-21 16:52:00,
2013-03-21 11:57:00,29.3,10.1,30.03,NW,315,5.5,7.7,44,0.00,,FEW028,0.00,VWS V14.01,2013-03-21 16:57:00,
2013-03-21 12:02:00,29.6,10.9,30.03,WNW,292,7.2,12.5,45,0.00,,CLR,0.00,VWS V14.01,2013-03-21 17:02:00,
2013-03-21 12:07:00,29.6,10.4,30.03,NNW,338,0.0,0.0,44,0.00,,CLR,0.00,VWS V14.01,2013-03-21 17:07:00,
2013-03-21 12:12:00,29.8,10.1,30.03,NNW,338,5.5,11.5,43,0.00,,CLR,0.00,VWS V14.01,2013-03-21 17:12:00,
2013-03-21 12:17:00,30.0,10.8,30.03,North,0,2.6,6.7,44,0.00,,CLR,0.00,VWS V14.01,2013-03-21 17:17:00,
2013-03-21 12:22:00,30.2,10.9,30.00,NNW,338,6.4,8.2,44,0.00,,CLR,0.00,VWS V14.01,2013-03-21 17:22:00,
2013-03-21 12:27:00,30.4,10.6,30.00,NNE,22,5.5,8.7,43,0.00,,CLR,0.00,VWS V14.01,2013-03-21 17:27:00,
2013-03-21 12:32:00,29.8,9.6,30.00,NE,45,2.6,5.3,42,0.00,,CLR,0.00,VWS V14.01,2013-03-21 17:32:00,
2013-03-21 12:37:00,30.5,10.7,30.03,WNW,292,3.0,6.7,43,0.00,,CLR,0.00,VWS V14.01,2013-03-21 17:37:00,
2013-03-21 12:42:00,30.7,10.9,30.03,WNW,292,3.8,4.8,43,0.00,,CLR,0.00,VWS V14.01,2013-03-21 17:42:00,
2013-03-21 12:47:00,31.3,11.4,30.03,NW,315,6.8,11.5,43,0.00,,CLR,0.00,VWS V14.01,2013-03-21 17:47:00,
2013-03-21 12:52:00,31.3,11.4,30.00,West,270,6.4,10.6,43,0.00,,CLR,0.00,VWS V14.01,2013-03-21 17:52:00,
2013-03-21 12:57:00,31.6,12.2,30.00,North,0,3.0,4.8,44,0.00,,CLR,0.00,VWS V14.01,2013-03-21 17:57:00,
2013-03-21 13:02:00,32.2,12.7,30.00,West,270,7.7,8.7,44,0.00,,CLR,0.00,VWS V14.01,2013-03-21 18:02:00,
2013-03-21 13:07:00,32.3,11.8,30.03,WNW,292,8.1,9.1,42,0.00,,CLR,0.00,VWS V14.01,2013-03-21 18:07:00,
2013-03-21 13:12:00,32.3,11.8,30.03,WSW,248,3.8,6.3,42,0.00,,CLR,0.00,VWS V14.01,2013-03-21 18:12:00,
2013-03-21 13:18:00,33.1,12.5,30.03,South,180,2.6,5.3,42,0.00,,CLR,0.00,VWS V14.01,2013-03-21 18:18:00,
2013-03-21 13:23:00,33.2,12.1,30.03,SW,225,3.8,7.7,41,0.00,,CLR,0.00,VWS V14.01,2013-03-21 18:23:00,
2013-03-21 13:28:00,33.4,12.3,30.03,SSE,158,0.0,2.9,41,0.00,,CLR,0.00,VWS V14.01,2013-03-21 18:28:00,
2013-03-21 13:33:00,34.0,12.8,30.03,NW,315,5.5,7.2,41,0.00,,CLR,0.00,VWS V14.01,2013-03-21 18:33:00,
2013-03-21 13:38:00,34.2,12.9,30.03,NW,315,7.2,9.6,41,0.00,,CLR,0.00,VWS V14.01,2013-03-21 18:38:00,
2013-03-21 13:43:00,34.3,13.1,30.03,NW,315,3.8,7.2,41,0.00,,CLR,0.00,VWS V14.01,2013-03-21 18:43:00,
2013-03-21 13:48:00,34.9,13.6,30.03,SSW,202,6.4,8.2,41,0.00,,CLR,0.00,VWS V14.01,2013-03-21 18:48:00,
2013-03-21 13:53:00,34.9,13.6,30.03,WNW,292,6.0,7.7,41,0.00,,CLR,0.00,VWS V14.01,2013-03-21 18:53:00,
2013-03-21 13:58:00,34.5,12.7,30.03,NNW,338,3.8,4.3,40,0.00,,CLR,0.00,VWS V14.01,2013-03-21 18:58:00,
2013-03-21 14:03:00,34.9,13.6,30.03,SW,225,4.7,9.1,41,0.00,,CLR,0.00,VWS V14.01,2013-03-21 19:03:00,
2013-03-21 14:08:00,35.0,13.2,30.03,SSE,158,6.8,7.7,40,0.00,,CLR,0.00,VWS V14.01,2013-03-21 19:08:00,
2013-03-21 14:13:00,35.0,11.4,30.03,WNW,292,4.7,6.7,37,0.00,,CLR,0.00,VWS V14.01,2013-03-21 19:13:00,
2013-03-21 14:18:00,34.9,10.0,30.03,SSE,158,0.0,2.9,35,0.00,,CLR,0.00,VWS V14.01,2013-03-21 19:18:00,
2013-03-21 14:23:00,35.6,13.7,30.03,NW,315,4.7,5.3,40,0.00,,CLR,0.00,VWS V14.01,2013-03-21 19:23:00,
2013-03-21 14:28:00,35.8,12.1,30.03,SSW,202,1.7,6.3,37,0.00,,CLR,0.00,VWS V14.01,2013-03-21 19:28:00,
2013-03-21 14:33:00,36.0,14.0,30.03,NW,315,3.0,12.0,40,0.00,,CLR,0.00,VWS V14.01,2013-03-21 19:33:00,
2013-03-21 14:38:00,36.1,14.1,30.03,NW,315,5.5,7.2,40,0.00,,CLR,0.00,VWS V14.01,2013-03-21 19:38:00,
2013-03-21 14:43:00,36.0,11.0,30.03,NW,315,6.8,7.7,35,0.00,,CLR,0.00,VWS V14.01,2013-03-21 19:43:00,
2013-03-21 14:48:00,36.0,11.0,30.03,NNW,338,6.4,7.7,35,0.00,,CLR,0.00,VWS V14.01,2013-03-21 19:48:00,
2013-03-21 14:53:00,35.8,10.8,30.03,NW,315,5.1,6.3,35,0.00,,CLR,0.00,VWS V14.01,2013-03-21 19:53:00,
2013-03-21 14:58:00,36.1,14.1,30.03,WNW,292,6.8,8.2,40,0.00,,CLR,0.00,VWS V14.01,2013-03-21 19:58:00,
2013-03-21 15:03:00,36.3,14.3,30.03,WNW,292,5.5,8.7,40,0.00,,CLR,0.00,VWS V14.01,2013-03-21 20:03:00,
2013-03-21 15:08:00,36.3,12.6,30.06,NNW,338,6.4,7.2,37,0.00,,CLR,0.00,VWS V14.01,2013-03-21 20:08:00,
2013-03-21 15:13:00,36.3,14.3,30.06,WNW,292,5.1,8.2,40,0.00,,CLR,0.00,VWS V14.01,2013-03-21 20:13:00,
2013-03-21 15:18:00,36.3,14.3,30.06,WSW,248,5.5,7.7,40,0.00,,CLR,0.00,VWS V14.01,2013-03-21 20:18:00,
2013-03-21 15:23:00,36.3,11.3,30.03,NNW,338,3.8,8.7,35,0.00,,CLR,0.00,VWS V14.01,2013-03-21 20:23:00,
2013-03-21 15:28:00,36.7,14.6,30.03,North,0,4.7,6.3,40,0.00,,CLR,0.00,VWS V14.01,2013-03-21 20:28:00,
2013-03-21 15:33:00,36.7,14.6,30.03,NNE,22,7.2,8.2,40,0.00,,CLR,0.00,VWS V14.01,2013-03-21 20:33:00,
2013-03-21 15:38:00,36.8,14.8,30.03,NNW,338,3.8,8.7,40,0.00,,CLR,0.00,VWS V14.01,2013-03-21 20:38:00,
2013-03-21 15:43:00,37.0,14.4,30.03,NW,315,6.8,7.7,39,0.00,,CLR,0.00,VWS V14.01,2013-03-21 20:43:00,
2013-03-21 15:48:00,37.0,13.2,30.03,WNW,292,5.5,6.7,37,0.00,,CLR,0.00,VWS V14.01,2013-03-21 20:48:00,
2013-03-21 15:53:00,37.2,14.6,30.03,NW,315,4.7,5.8,39,0.00,,CLR,0.00,VWS V14.01,2013-03-21 20:53:00,
2013-03-21 15:58:00,37.4,15.3,30.03,West,270,4.7,5.8,40,0.00,,CLR,0.00,VWS V14.01,2013-03-21 20:58:00,
2013-03-21 16:03:00,37.2,13.4,30.03,West,270,3.8,6.7,37,0.00,,CLR,0.00,VWS V14.01,2013-03-21 21:03:00,
2013-03-21 16:08:00,37.8,15.0,30.03,WNW,292,3.8,5.8,39,0.00,,CLR,0.00,VWS V14.01,2013-03-21 21:08:00,
2013-03-21 16:13:00,37.9,14.0,30.03,SW,225,3.8,4.3,37,0.00,,CLR,0.00,VWS V14.01,2013-03-21 21:13:00,
2013-03-21 16:18:00,37.9,14.0,30.03,NNW,338,3.0,6.7,37,0.00,,CLR,0.00,VWS V14.01,2013-03-21 21:18:00,
2013-03-21 16:23:00,38.3,12.4,30.00,SW,225,5.1,5.8,34,0.00,,CLR,0.00,VWS V14.01,2013-03-21 21:23:00,
2013-03-21 16:28:00,38.5,12.6,30.00,WNW,292,6.4,7.2,34,0.00,,CLR,0.00,VWS V14.01,2013-03-21 21:28:00,
2013-03-21 16:33:00,38.5,11.2,30.00,NW,315,3.8,7.2,32,0.00,,CLR,0.00,VWS V14.01,2013-03-21 21:33:00,
2013-03-21 16:38:00,38.7,12.7,30.00,WNW,292,6.8,7.7,34,0.00,,CLR,0.00,VWS V14.01,2013-03-21 21:38:00,
2013-03-21 16:44:00,38.7,12.7,30.00,West,270,2.1,7.2,34,0.00,,CLR,0.00,VWS V14.01,2013-03-21 21:44:00,
2013-03-21 16:49:00,38.7,12.7,30.00,NNE,22,2.6,2.9,34,0.00,,CLR,0.00,VWS V14.01,2013-03-21 21:49:00,
2013-03-21 16:54:00,38.3,11.0,30.00,NNE,22,0.0,0.0,32,0.00,,CLR,0.00,VWS V14.01,2013-03-21 21:54:00,
2013-03-21 16:59:00,38.3,12.4,30.00,SE,135,0.0,0.0,34,0.00,,CLR,0.00,VWS V14.01,2013-03-21 21:59:00,
2013-03-21 17:04:00,38.1,10.9,30.00,NNW,338,3.0,3.4,32,0.00,,CLR,0.00,VWS V14.01,2013-03-21 22:04:00,
2013-03-21 17:09:00,38.5,14.5,30.00,NW,315,6.4,9.6,37,0.00,,CLR,0.00,VWS V14.01,2013-03-21 22:09:00,
2013-03-21 17:14:00,38.3,15.5,30.00,NW,315,4.7,5.3,39,0.00,,CLR,0.00,VWS V14.01,2013-03-21 22:14:00,
2013-03-21 17:19:00,37.9,14.0,30.00,NE,45,2.6,2.9,37,0.00,,CLR,0.00,VWS V14.01,2013-03-21 22:19:00,
2013-03-21 17:24:00,38.1,14.2,30.00,NE,45,2.6,2.9,37,0.00,,CLR,0.00,VWS V14.01,2013-03-21 22:24:00,
2013-03-21 17:29:00,37.4,11.6,30.00,NE,45,5.5,6.3,34,0.00,,CLR,0.00,VWS V14.01,2013-03-21 22:29:00,
2013-03-21 17:34:00,37.8,13.8,30.00,NNE,22,3.0,6.3,37,0.00,,CLR,0.00,VWS V14.01,2013-03-21 22:34:00,
2013-03-21 17:39:00,37.6,13.7,30.00,NNE,22,2.6,2.9,37,0.00,,CLR,0.00,VWS V14.01,2013-03-21 22:39:00,
2013-03-21 17:44:00,37.8,11.9,30.00,NNE,22,2.6,2.9,34,0.00,,CLR,0.00,VWS V14.01,2013-03-21 22:44:00,
2013-03-21 17:49:00,37.6,13.7,30.00,NNE,22,2.6,2.9,37,0.00,,CLR,0.00,VWS V14.01,2013-03-21 22:49:00,
2013-03-21 17:54:00,37.4,13.5,30.00,NNE,22,2.6,2.9,37,0.00,,CLR,0.00,VWS V14.01,2013-03-21 22:54:00,
2013-03-21 17:59:00,37.4,14.7,30.00,NNE,22,2.6,2.9,39,0.00,,CLR,0.00,VWS V14.01,2013-03-21 22:59:00,
2013-03-21 18:04:00,37.0,13.2,30.00,North,0,3.8,4.3,37,0.00,,CLR,0.00,VWS V14.01,2013-03-21 23:04:00,
2013-03-21 18:09:00,37.2,14.6,30.00,North,0,4.7,6.3,39,0.00,,CLR,0.00,VWS V14.01,2013-03-21 23:09:00,
2013-03-21 18:14:00,36.8,13.0,30.00,North,0,2.1,2.4,37,0.00,,CLR,0.00,VWS V14.01,2013-03-21 23:14:00,
2013-03-21 18:19:00,37.0,13.2,30.00,NE,45,2.6,3.4,37,0.00,,CLR,0.00,VWS V14.01,2013-03-21 23:19:00,
2013-03-21 18:24:00,36.7,12.9,30.00,NE,45,2.1,2.4,37,0.00,,CLR,0.00,VWS V14.01,2013-03-21 23:24:00,
2013-03-21 18:29:00,36.5,12.7,30.00,NE,45,3.0,3.4,37,0.00,,CLR,0.00,VWS V14.01,2013-03-21 23:29:00,
2013-03-21 18:34:00,36.7,12.9,30.03,NE,45,3.0,3.4,37,0.00,,CLR,0.00,VWS V14.01,2013-03-21 23:34:00,
2013-03-21 18:39:00,36.7,14.6,30.03,NE,45,3.0,3.4,40,0.00,,CLR,0.00,VWS V14.01,2013-03-21 23:39:00,
2013-03-21 18:44:00,36.7,14.6,30.03,ENE,68,0.0,0.0,40,0.00,,CLR,0.00,VWS V14.01,2013-03-21 23:44:00,
2013-03-21 18:49:00,36.3,12.6,30.03,ENE,68,0.0,0.0,37,0.00,,CLR,0.00,VWS V14.01,2013-03-21 23:49:00,
2013-03-21 18:54:00,36.1,12.4,30.03,ENE,68,0.0,0.0,37,0.00,,CLR,0.00,VWS V14.01,2013-03-21 23:54:00,
2013-03-21 18:59:00,36.1,12.4,30.03,ENE,68,0.0,0.0,37,0.00,,CLR,0.00,VWS V14.01,2013-03-21 23:59:00,
2013-03-21 19:04:00,36.0,14.0,30.03,ENE,68,0.0,0.0,40,0.00,,CLR,0.00,VWS V14.01,2013-03-22 00:04:00,
2013-03-21 19:09:00,35.8,12.1,30.03,ENE,68,0.0,0.0,37,0.00,,CLR,0.00,VWS V14.01,2013-03-22 00:09:00,
2013-03-21 19:14:00,35.6,13.7,30.03,ENE,68,0.0,0.0,40,0.00,,CLR,0.00,VWS V14.01,2013-03-22 00:14:00,
2013-03-21 19:19:00,35.0,13.2,30.03,ENE,68,0.0,0.0,40,0.00,,CLR,0.00,VWS V14.01,2013-03-22 00:19:00,
2013-03-21 19:24:00,34.9,11.9,30.03,ENE,68,0.0,0.0,38,0.00,,CLR,0.00,VWS V14.01,2013-03-22 00:24:00,
2013-03-21 19:30:00,34.3,11.4,30.03,ENE,68,0.0,0.0,38,0.00,,CLR,0.00,VWS V14.01,2013-03-22 00:30:00,
2013-03-21 19:35:00,34.2,11.2,30.03,ENE,68,0.0,0.0,38,0.00,,CLR,0.00,VWS V14.01,2013-03-22 00:35:00,
2013-03-21 19:40:00,34.3,11.4,30.03,ENE,68,0.0,0.0,38,0.00,,CLR,0.00,VWS V14.01,2013-03-22 00:40:00,
2013-03-21 19:45:00,34.2,12.4,30.03,ENE,68,0.0,0.0,40,0.00,,CLR,0.00,VWS V14.01,2013-03-22 00:45:00,
2013-03-21 19:50:00,34.0,12.2,30.03,ENE,68,0.0,0.0,40,0.00,,CLR,0.00,VWS V14.01,2013-03-22 00:50:00,
2013-03-21 19:55:00,33.4,12.3,30.03,ENE,68,0.0,0.0,41,0.00,,CLR,0.00,VWS V14.01,2013-03-22 00:55:00,
2013-03-21 20:00:00,33.2,11.6,30.03,ENE,68,0.0,0.0,40,0.00,,CLR,0.00,VWS V14.01,2013-03-22 01:00:00,
2013-03-21 20:05:00,33.2,11.6,30.00,ENE,68,0.0,0.0,40,0.00,,CLR,0.00,VWS V14.01,2013-03-22 01:05:00,
2013-03-21 20:10:00,33.2,12.1,30.00,ENE,68,0.0,0.0,41,0.00,,CLR,0.00,VWS V14.01,2013-03-22 01:10:00,
2013-03-21 20:15:00,32.7,11.1,30.00,ENE,68,0.0,0.0,40,0.00,,CLR,0.00,VWS V14.01,2013-03-22 01:15:00,
2013-03-21 20:20:00,32.2,10.6,30.00,ENE,68,0.0,0.0,40,0.00,,CLR,0.00,VWS V14.01,2013-03-22 01:20:00,
2013-03-21 20:25:00,31.8,10.2,30.00,ENE,68,0.0,0.0,40,0.00,,CLR,0.00,VWS V14.01,2013-03-22 01:25:00,
2013-03-21 20:30:00,31.8,10.2,30.00,ENE,68,0.0,0.0,40,0.00,,CLR,0.00,VWS V14.01,2013-03-22 01:30:00,
2013-03-21 20:35:00,31.5,10.5,30.03,ENE,68,0.0,0.0,41,0.00,,CLR,0.00,VWS V14.01,2013-03-22 01:35:00,
2013-03-21 20:40:00,31.3,10.3,30.03,ENE,68,0.0,0.0,41,0.00,,CLR,0.00,VWS V14.01,2013-03-22 01:40:00,
2013-03-21 20:45:00,31.5,11.0,30.03,ENE,68,0.0,0.0,42,0.00,,CLR,0.00,VWS V14.01,2013-03-22 01:45:00,
2013-03-21 20:50:00,31.5,11.0,30.03,ENE,68,0.0,0.0,42,0.00,,CLR,0.00,VWS V14.01,2013-03-22 01:50:00,
2013-03-21 20:55:00,30.9,10.0,30.03,ENE,68,0.0,0.0,41,0.00,,CLR,0.00,VWS V14.01,2013-03-22 01:55:00,
2013-03-21 21:00:00,30.5,10.2,30.03,ENE,68,0.0,0.0,42,0.00,,CLR,0.00,VWS V14.01,2013-03-22 02:00:00,
2013-03-21 21:05:00,30.5,10.2,30.03,ENE,68,0.0,0.0,42,0.00,,CLR,0.00,VWS V14.01,2013-03-22 02:05:00,
2013-03-21 21:10:00,30.4,10.6,30.03,ENE,68,0.0,0.0,43,0.00,,CLR,0.00,VWS V14.01,2013-03-22 02:10:00,
2013-03-21 21:15:00,30.4,10.6,30.03,ENE,68,0.0,0.0,43,0.00,,CLR,0.00,VWS V14.01,2013-03-22 02:15:00,
2013-03-21 21:20:00,30.4,10.6,30.03,ENE,68,0.0,0.0,43,0.00,,CLR,0.00,VWS V14.01,2013-03-22 02:20:00,
2013-03-21 21:25:00,30.5,11.2,30.03,ENE,68,0.0,0.0,44,0.00,,CLR,0.00,VWS V14.01,2013-03-22 02:25:00,
2013-03-21 21:30:00,30.4,11.6,30.03,ENE,68,0.0,0.0,45,0.00,,CLR,0.00,VWS V14.01,2013-03-22 02:30:00,
2013-03-21 21:35:00,30.2,11.4,30.06,ENE,68,0.0,0.0,45,0.00,,CLR,0.00,VWS V14.01,2013-03-22 02:35:00,
2013-03-21 21:40:00,30.2,11.9,30.06,ENE,68,0.0,0.0,46,0.00,,CLR,0.00,VWS V14.01,2013-03-22 02:40:00,
2013-03-21 21:45:00,30.0,11.3,30.06,ENE,68,0.0,0.0,45,0.00,,CLR,0.00,VWS V14.01,2013-03-22 02:45:00,
2013-03-21 21:51:00,29.8,13.5,30.06,ENE,68,0.0,0.0,50,0.00,,CLR,0.00,VWS V14.01,2013-03-22 02:51:00,
2013-03-21 21:56:00,29.8,13.0,30.06,SSE,158,0.0,0.0,49,0.00,,CLR,0.00,VWS V14.01,2013-03-22 02:56:00,
2013-03-21 22:01:00,29.6,13.3,30.06,SSE,158,0.0,0.0,50,0.00,,CLR,0.00,VWS V14.01,2013-03-22 03:01:00,
2013-03-21 22:06:00,29.5,13.6,30.06,SSE,158,0.0,0.0,51,0.00,,CLR,0.00,VWS V14.01,2013-03-22 03:06:00,
2013-03-21 22:11:00,29.3,13.4,30.06,SE,135,0.0,0.0,51,0.00,,CLR,0.00,VWS V14.01,2013-03-22 03:11:00,
2013-03-21 22:16:00,29.3,13.4,30.06,SE,135,0.0,0.0,51,0.00,,CLR,0.00,VWS V14.01,2013-03-22 03:16:00,
2013-03-21 22:21:00,29.1,13.2,30.06,SE,135,0.0,0.0,51,0.00,,CLR,0.00,VWS V14.01,2013-03-22 03:21:00,
2013-03-21 22:26:00,28.8,12.9,30.06,SE,135,0.0,0.0,51,0.00,,CLR,0.00,VWS V14.01,2013-03-22 03:26:00,
2013-03-21 22:31:00,28.8,12.9,30.06,ESE,112,0.0,2.4,51,0.00,,CLR,0.00,VWS V14.01,2013-03-22 03:31:00,
2013-03-21 22:36:00,28.4,13.0,30.06,ESE,112,1.7,2.4,52,0.00,,CLR,0.00,VWS V14.01,2013-03-22 03:36:00,
2013-03-21 22:42:00,28.2,13.3,30.06,ESE,112,2.6,4.3,53,0.00,,CLR,0.00,VWS V14.01,2013-03-22 03:42:00,
2013-03-21 22:47:00,28.4,13.9,30.06,ESE,112,0.0,2.4,54,0.00,,CLR,0.00,VWS V14.01,2013-03-22 03:47:00,
2013-03-21 22:52:00,28.4,13.5,30.03,ESE,112,0.0,0.0,53,0.00,,CLR,0.00,VWS V14.01,2013-03-22 03:52:00,
2013-03-21 22:57:00,28.2,12.9,30.03,ESE,112,0.0,0.0,52,0.00,,CLR,0.00,VWS V14.01,2013-03-22 03:57:00,
2013-03-21 23:00:00,28.2,12.9,30.03,ESE,112,0.0,0.0,52,0.00,,CLR,0.00,VWS V14.01,2013-03-22 04:00:00,
2013-03-21 23:03:00,28.2,12.9,30.03,ESE,112,0.0,0.0,52,0.00,,CLR,0.00,VWS V14.01,2013-03-22 04:03:00,
2013-03-21 23:08:00,28.0,12.7,30.03,ESE,112,0.0,0.0,52,0.00,,CLR,0.00,VWS V14.01,2013-03-22 04:08:00,
2013-03-21 23:13:00,27.9,12.9,30.03,ESE,112,0.0,0.0,53,0.00,,CLR,0.00,VWS V14.01,2013-03-22 04:13:00,
2013-03-21 23:18:00,27.9,12.9,30.03,SE,135,1.7,1.9,53,0.00,,CLR,0.00,VWS V14.01,2013-03-22 04:18:00,
2013-03-21 23:23:00,27.7,12.8,30.06,SE,135,0.0,0.0,53,0.00,,CLR,0.00,VWS V14.01,2013-03-22 04:23:00,
2013-03-21 23:28:00,27.7,12.8,30.06,SE,135,0.0,0.0,53,0.00,,CLR,0.00,VWS V14.01,2013-03-22 04:28:00,
2013-03-21 23:33:00,27.9,12.5,30.06,SE,135,0.0,0.0,52,0.00,,CLR,0.00,VWS V14.01,2013-03-22 04:33:00,
2013-03-21 23:38:00,27.5,12.6,30.03,SE,135,0.0,0.0,53,0.00,,CLR,0.00,VWS V14.01,2013-03-22 04:38:00,
2013-03-21 23:43:00,27.7,12.8,30.03,SE,135,0.0,0.0,53,0.00,,CLR,0.00,VWS V14.01,2013-03-22 04:43:00,
2013-03-21 23:48:00,27.7,12.8,30.03,SE,135,0.0,0.0,53,0.00,,CLR,0.00,VWS V14.01,2013-03-22 04:48:00,
2013-03-21 23:53:00,27.5,13.0,30.03,SE,135,0.0,0.0,54,0.00,,CLR,0.00,VWS V14.01,2013-03-22 04:53:00,
2013-03-21 23:58:00,27.5,12.6,30.03,SE,135,0.0,0.0,53,0.00,,CLR,0.00,VWS V14.01,2013-03-22 04:58:00,